createdAt,value
2022-10-03T00:00:09.632Z,17.18
2022-10-03T00:03:23.976Z,17.11
2022-10-03T00:06:12.000Z,17.11
2022-10-03T00:09:15.567Z,17.19
2022-10-03T00:12:05.691Z,17.19
2022-10-03T00:14:48.732Z,17.15
2022-10-03T00:17:26.782Z,17.19
2022-10-03T00:20:12.130Z,17.17
2022-10-03T00:22:49.894Z,17.18
2022-10-03T00:25:35.132Z,17.05
2022-10-03T00:28:20.601Z,17.10
2022-10-03T00:31:12.263Z,17.14
2022-10-03T00:34:02.454Z,17.18
2022-10-03T00:36:43.809Z,17.20
2022-10-03T00:39:39.669Z,17.20
2022-10-03T00:43:11.759Z,17.21
2022-10-03T00:46:45.844Z,17.18
2022-10-03T00:50:08.632Z,17.16
2022-10-03T00:53:18.002Z,17.14
2022-10-03T00:56:16.909Z,17.05
2022-10-03T00:59:11.898Z,17.16
2022-10-03T01:01:48.440Z,17.13
2022-10-03T01:04:55.071Z,17.09
2022-10-03T01:07:54.999Z,17.12
2022-10-03T01:10:36.375Z,17.14
2022-10-03T01:13:31.498Z,17.12
2022-10-03T01:16:13.487Z,17.02
2022-10-03T01:19:02.230Z,17.09
2022-10-03T01:21:43.836Z,17.10
2022-10-03T01:24:47.780Z,16.99
2022-10-03T01:27:22.616Z,17.05
2022-10-03T01:30:16.106Z,16.93
2022-10-03T01:32:53.487Z,16.92
2022-10-03T01:35:33.017Z,16.97
2022-10-03T01:38:22.567Z,16.96
2022-10-03T01:41:03.147Z,16.87
2022-10-03T01:43:42.881Z,16.88
2022-10-03T01:46:22.515Z,16.85
2022-10-03T01:49:03.358Z,16.95
2022-10-03T01:51:46.923Z,16.92
2022-10-03T01:54:29.761Z,16.91
2022-10-03T01:57:01.732Z,16.94
2022-10-03T01:59:42.742Z,16.92
2022-10-03T02:02:25.130Z,16.95
2022-10-03T02:05:04.648Z,16.93
2022-10-03T02:07:47.099Z,16.91
2022-10-03T02:10:29.631Z,16.85
2022-10-03T02:13:10.865Z,16.75
2022-10-03T02:15:55.208Z,16.85
2022-10-03T02:18:39.021Z,16.85
2022-10-03T02:21:16.876Z,16.84
2022-10-03T02:23:48.133Z,16.84
2022-10-03T02:27:44.033Z,16.84
2022-10-03T02:30:21.434Z,16.77
2022-10-03T02:33:40.153Z,16.92
2022-10-03T02:36:59.515Z,16.94
2022-10-03T02:40:33.041Z,16.94
2022-10-03T02:43:54.308Z,16.92
2022-10-03T02:47:07.068Z,16.91
2022-10-03T02:50:33.961Z,16.91
2022-10-03T02:54:00.462Z,16.88
2022-10-03T02:57:31.348Z,16.91
2022-10-03T03:00:15.547Z,16.87
2022-10-03T03:03:21.201Z,16.84
2022-10-03T03:06:55.282Z,16.85
2022-10-03T03:10:07.504Z,16.77
2022-10-03T03:13:39.871Z,16.72
2022-10-03T03:16:44.255Z,16.72
2022-10-03T03:19:52.669Z,16.73
2022-10-03T03:22:41.310Z,16.68
2022-10-03T03:25:45.582Z,16.71
2022-10-03T03:28:33.227Z,16.69
2022-10-03T03:31:12.436Z,16.62
2022-10-03T03:34:07.281Z,16.61
2022-10-03T03:36:45.219Z,16.52
2022-10-03T03:39:43.823Z,16.55
2022-10-03T03:42:40.394Z,16.58
2022-10-03T03:45:38.914Z,16.59
2022-10-03T03:48:54.946Z,16.55
2022-10-03T03:51:35.134Z,16.45
2022-10-03T03:54:34.548Z,16.46
2022-10-03T03:57:33.231Z,16.46
2022-10-03T04:00:15.140Z,16.43
2022-10-03T04:03:12.183Z,16.34
2022-10-03T04:06:04.124Z,16.27
2022-10-03T04:08:59.304Z,16.19
2022-10-03T04:11:45.530Z,16.07
2022-10-03T04:14:46.563Z,16.15
2022-10-03T04:18:00.440Z,16.12
2022-10-03T04:20:58.658Z,16.06
2022-10-03T04:23:54.217Z,16.07
2022-10-03T04:26:39.643Z,15.99
2022-10-03T04:29:47.288Z,15.98
2022-10-03T04:32:48.432Z,15.92
2022-10-03T04:35:39.633Z,15.90
2022-10-03T04:38:17.121Z,15.86
2022-10-03T04:40:58.867Z,15.74
2022-10-03T04:43:42.157Z,15.82
2022-10-03T04:46:29.170Z,15.81
2022-10-03T04:49:12.836Z,15.84
2022-10-03T04:51:55.719Z,15.85
2022-10-03T04:54:38.838Z,15.87
2022-10-03T04:57:12.289Z,15.86
2022-10-03T04:59:51.516Z,15.92
2022-10-03T05:02:46.837Z,15.95
2022-10-03T05:05:31.248Z,15.96
2022-10-03T05:08:14.036Z,15.95
2022-10-03T05:10:59.169Z,15.97
2022-10-03T05:14:03.717Z,15.98
2022-10-03T05:16:42.488Z,15.97
2022-10-03T05:19:53.157Z,16.00
2022-10-03T05:22:43.375Z,15.98
2022-10-03T05:25:35.818Z,15.97
2022-10-03T05:28:22.409Z,15.97
2022-10-03T05:31:00.561Z,15.94
2022-10-03T05:33:44.078Z,16.01
2022-10-03T05:36:30.447Z,16.08
2022-10-03T05:39:27.504Z,16.12
2022-10-03T05:42:22.712Z,16.12
2022-10-03T05:45:04.383Z,16.13
2022-10-03T05:47:49.875Z,16.14
2022-10-03T05:50:57.963Z,16.08
2022-10-03T05:54:02.812Z,16.07
2022-10-03T05:56:56.281Z,16.11
2022-10-03T06:00:02.535Z,16.05
2022-10-03T06:03:02.151Z,16.10
2022-10-03T06:06:02.040Z,16.11
2022-10-03T06:08:54.083Z,16.09
2022-10-03T06:11:51.604Z,16.13
2022-10-03T06:14:43.636Z,16.13
2022-10-03T06:17:36.796Z,16.06
2022-10-03T06:20:52.685Z,16.20
2022-10-03T06:24:04.851Z,16.12
2022-10-03T06:27:26.389Z,16.19
2022-10-03T06:30:14.256Z,16.21
2022-10-03T06:33:57.655Z,16.31
2022-10-03T06:36:57.389Z,16.32
2022-10-03T06:40:19.963Z,16.21
2022-10-03T06:43:16.053Z,16.25
2022-10-03T06:46:55.093Z,16.34
2022-10-03T06:49:44.068Z,16.39
2022-10-03T06:53:17.926Z,16.39
2022-10-03T06:56:11.133Z,16.49
2022-10-03T06:59:19.261Z,16.49
2022-10-03T07:02:23.729Z,16.45
2022-10-03T07:06:10.382Z,16.36
2022-10-03T07:09:29.986Z,16.44
2022-10-03T07:12:57.849Z,16.48
2022-10-03T07:16:26.634Z,16.57
2022-10-03T07:19:31.406Z,16.54
2022-10-03T07:22:56.844Z,16.54
2022-10-03T07:26:23.409Z,16.53
2022-10-03T07:29:23.573Z,16.47
2022-10-03T07:33:08.121Z,16.50
2022-10-03T07:36:09.534Z,16.57
2022-10-03T07:39:26.186Z,16.50
2022-10-03T07:42:24.924Z,16.57
2022-10-03T07:45:30.619Z,16.54
2022-10-03T07:48:40.708Z,16.57
2022-10-03T07:51:24.073Z,16.63
2022-10-03T07:54:44.288Z,16.71
2022-10-03T07:57:55.432Z,16.62
2022-10-03T08:00:28.239Z,16.70
2022-10-03T08:04:01.281Z,16.73
2022-10-03T08:06:39.315Z,16.72
2022-10-03T08:09:54.396Z,16.82
2022-10-03T08:13:04.120Z,16.80
2022-10-03T08:15:53.928Z,16.87
2022-10-03T08:19:10.349Z,16.87
2022-10-03T08:22:01.947Z,16.92
2022-10-03T08:25:03.484Z,16.93
2022-10-03T08:27:52.993Z,17.01
2022-10-03T08:30:28.948Z,17.05
2022-10-03T08:33:23.718Z,17.02
2022-10-03T08:36:45.873Z,17.08
2022-10-03T08:39:26.381Z,17.12
2022-10-03T08:42:50.044Z,17.16
2022-10-03T08:45:58.067Z,17.14
2022-10-03T08:49:03.443Z,17.28
2022-10-03T08:52:10.349Z,17.36
2022-10-03T08:55:31.160Z,17.45
2022-10-03T08:58:48.605Z,17.51
2022-10-03T09:01:55.682Z,17.59
2022-10-03T09:05:11.587Z,17.65
2022-10-03T09:08:20.078Z,17.69
2022-10-03T09:11:43.381Z,17.68
2022-10-03T09:15:00.776Z,17.68
2022-10-03T09:18:22.939Z,17.65
2022-10-03T09:22:11.720Z,17.67
2022-10-03T09:25:30.217Z,17.60
2022-10-03T09:29:06.422Z,17.68
2022-10-03T09:32:25.715Z,17.68
2022-10-03T09:35:42.302Z,17.69
2022-10-03T09:39:01.531Z,17.78
2022-10-03T09:42:28.173Z,17.74
2022-10-03T09:45:37.980Z,17.81
2022-10-03T09:48:45.595Z,17.88
2022-10-03T09:51:27.482Z,17.93
2022-10-03T09:54:45.338Z,17.99
2022-10-03T09:58:14.043Z,18.08
2022-10-03T10:01:21.828Z,18.11
2022-10-03T10:04:54.996Z,18.16
2022-10-03T10:08:10.371Z,18.12
2022-10-03T10:11:10.826Z,18.10
2022-10-03T10:14:32.641Z,18.13
2022-10-03T10:18:02.525Z,18.07
2022-10-03T10:21:03.951Z,17.93
2022-10-03T10:23:51.134Z,18.04
2022-10-03T10:27:01.773Z,17.97
2022-10-03T10:30:01.760Z,17.95
2022-10-03T10:33:33.343Z,18.07
2022-10-03T10:37:09.323Z,18.07
2022-10-03T10:40:26.369Z,18.02
2022-10-03T10:44:06.435Z,18.04
2022-10-03T10:47:49.073Z,18.08
2022-10-03T10:51:21.457Z,18.22
2022-10-03T10:54:54.253Z,18.27
2022-10-03T10:57:54.625Z,18.39
2022-10-03T11:00:31.670Z,18.59
2022-10-03T11:04:09.372Z,18.72
2022-10-03T11:07:26.804Z,18.85
2022-10-03T11:10:31.273Z,18.94
2022-10-03T11:14:16.876Z,19.08
2022-10-03T11:17:51.034Z,19.14
2022-10-03T11:21:14.376Z,19.14
2022-10-03T11:24:20.379Z,19.19
2022-10-03T11:27:47.605Z,19.41
2022-10-03T11:30:51.272Z,19.54
2022-10-03T11:34:01.045Z,19.56
2022-10-03T11:37:26.404Z,19.62
2022-10-03T11:40:15.120Z,19.76
2022-10-03T11:42:59.248Z,19.85
2022-10-03T11:45:34.222Z,19.82
2022-10-03T11:48:39.695Z,19.89
2022-10-03T11:51:15.743Z,19.97
2022-10-03T11:53:50.683Z,19.95
2022-10-03T11:56:39.300Z,19.77
2022-10-03T11:59:52.017Z,19.82
2022-10-03T12:02:46.576Z,19.79
2022-10-03T12:05:26.122Z,19.79
2022-10-03T12:08:30.454Z,19.82
2022-10-03T12:11:11.474Z,19.79
2022-10-03T12:14:05.246Z,19.76
2022-10-03T12:16:58.884Z,19.67
2022-10-03T12:19:34.833Z,19.79
2022-10-03T12:22:19.962Z,19.82
2022-10-03T12:24:49.916Z,19.79
2022-10-03T12:27:39.442Z,19.81
2022-10-03T12:30:17.621Z,19.48
2022-10-03T12:33:09.096Z,19.49
2022-10-03T12:35:47.001Z,19.54
2022-10-03T12:38:40.431Z,19.59
2022-10-03T12:41:25.929Z,19.76
2022-10-03T12:44:17.555Z,19.86
2022-10-03T12:47:03.159Z,19.93
2022-10-03T12:49:52.562Z,19.99
2022-10-03T12:52:29.788Z,19.94
2022-10-03T12:55:27.388Z,20.13
2022-10-03T12:58:07.340Z,20.11
2022-10-03T13:00:47.543Z,20.43
2022-10-03T13:03:34.144Z,20.25
2022-10-03T13:07:02.962Z,20.27
2022-10-03T13:10:10.941Z,20.18
2022-10-03T13:12:51.223Z,20.29
2022-10-03T13:16:06.814Z,20.57
2022-10-03T13:19:06.625Z,20.86
2022-10-03T13:22:07.264Z,20.65
2022-10-03T13:24:43.300Z,20.54
2022-10-03T13:27:33.439Z,20.60
2022-10-03T13:30:14.470Z,20.99
2022-10-03T13:32:47.847Z,21.57
2022-10-03T13:35:55.064Z,22.03
2022-10-03T13:38:55.173Z,22.64
2022-10-03T13:41:50.218Z,23.14
2022-10-03T13:44:23.866Z,24.01
2022-10-03T13:47:01.648Z,24.30
2022-10-03T13:49:35.980Z,23.96
2022-10-03T13:52:18.942Z,23.56
2022-10-03T13:55:28.044Z,22.97
2022-10-03T13:58:16.018Z,22.76
2022-10-03T14:01:11.831Z,23.37
2022-10-03T14:03:54.563Z,24.12
2022-10-03T14:06:36.616Z,24.36
2022-10-03T14:10:00.555Z,24.95
2022-10-03T14:12:55.313Z,25.25
2022-10-03T14:15:42.126Z,25.79
2022-10-03T14:18:27.576Z,25.59
2022-10-03T14:22:06.287Z,25.73
2022-10-03T14:25:00.904Z,26.00
2022-10-03T14:27:53.284Z,26.26
2022-10-03T14:30:24.799Z,26.49
2022-10-03T14:33:13.268Z,26.39
2022-10-03T14:35:56.208Z,26.19
2022-10-03T14:39:02.374Z,25.87
2022-10-03T14:41:50.328Z,26.26
2022-10-03T14:44:23.780Z,26.36
2022-10-03T14:46:58.816Z,26.08
2022-10-03T14:49:53.542Z,25.63
2022-10-03T14:52:31.605Z,25.05
2022-10-03T14:55:13.561Z,24.57
2022-10-03T14:58:09.278Z,24.19
2022-10-03T15:00:45.430Z,24.11
2022-10-03T15:03:22.985Z,24.21
2022-10-03T15:06:34.023Z,24.10
2022-10-03T15:09:10.208Z,23.92
2022-10-03T15:11:49.868Z,24.46
2022-10-03T15:14:22.620Z,24.71
2022-10-03T15:16:56.312Z,24.52
2022-10-03T15:19:37.439Z,24.20
2022-10-03T15:22:22.214Z,24.21
2022-10-03T15:24:55.023Z,23.60
2022-10-03T15:27:25.529Z,23.50
2022-10-03T15:29:59.693Z,22.92
2022-10-03T15:32:34.962Z,22.73
2022-10-03T15:35:06.121Z,22.60
2022-10-03T15:37:45.403Z,22.42
2022-10-03T15:40:32.173Z,22.22
2022-10-03T15:43:09.383Z,22.13
2022-10-03T15:45:40.944Z,21.82
2022-10-03T15:48:19.954Z,21.61
2022-10-03T15:50:57.065Z,21.23
2022-10-03T15:53:36.425Z,21.11
2022-10-03T15:56:15.482Z,20.67
2022-10-03T15:58:51.063Z,20.38
2022-10-03T16:01:26.979Z,20.12
2022-10-03T16:04:01.095Z,20.14
2022-10-03T16:06:40.230Z,19.87
2022-10-03T16:09:25.072Z,19.86
2022-10-03T16:12:13.035Z,19.98
2022-10-03T16:14:45.953Z,19.96
2022-10-03T16:17:21.968Z,19.96
2022-10-03T16:19:56.406Z,19.90
2022-10-03T16:22:35.043Z,19.90
2022-10-03T16:25:14.135Z,19.80
2022-10-03T16:27:55.982Z,19.82
2022-10-03T16:30:29.212Z,19.86
2022-10-03T16:33:12.792Z,19.79
2022-10-03T16:35:48.662Z,19.71
2022-10-03T16:38:26.049Z,19.87
2022-10-03T16:40:59.360Z,19.85
2022-10-03T16:43:32.973Z,19.90
2022-10-03T16:46:10.341Z,19.82
2022-10-03T16:49:02.395Z,19.83
2022-10-03T16:51:40.801Z,19.89
2022-10-03T16:54:14.864Z,19.77
2022-10-03T16:56:51.212Z,19.78
2022-10-03T16:59:23.165Z,19.67
2022-10-03T17:01:55.698Z,19.54
2022-10-03T17:04:27.998Z,19.63
2022-10-03T17:07:00.993Z,19.61
2022-10-03T17:09:38.519Z,19.71
2022-10-03T17:12:17.177Z,19.53
2022-10-03T17:14:47.207Z,19.68
2022-10-03T17:17:31.298Z,19.74
2022-10-03T17:20:07.157Z,19.59
2022-10-03T17:22:43.514Z,19.55
2022-10-03T17:25:42.992Z,19.37
2022-10-03T17:28:24.592Z,19.47
2022-10-03T17:31:00.378Z,19.24
2022-10-03T17:33:39.838Z,19.52
2022-10-03T17:37:20.938Z,19.54
2022-10-03T17:39:58.805Z,19.44
2022-10-03T17:42:42.188Z,19.54
2022-10-03T17:45:37.103Z,19.53
2022-10-03T17:48:21.047Z,19.47
2022-10-03T17:51:04.689Z,19.25
2022-10-03T17:53:39.703Z,19.27
2022-10-03T17:56:14.701Z,19.21
2022-10-03T17:58:49.966Z,19.21
2022-10-03T18:01:23.669Z,19.29
2022-10-03T18:03:58.208Z,19.16
2022-10-03T18:06:47.348Z,19.27
2022-10-03T18:09:41.023Z,19.25
2022-10-03T18:12:30.272Z,19.16
2022-10-03T18:15:48.155Z,19.30
2022-10-03T18:19:09.757Z,19.22
2022-10-03T18:22:06.477Z,19.32
2022-10-03T18:25:01.526Z,19.24
2022-10-03T18:28:14.503Z,19.25
2022-10-03T18:30:53.726Z,18.92
2022-10-03T18:33:30.359Z,19.11
2022-10-03T18:36:08.905Z,19.03
2022-10-03T18:38:40.489Z,19.02
2022-10-03T18:41:16.973Z,18.96
2022-10-03T18:43:54.004Z,18.93
2022-10-03T18:46:27.067Z,19.00
2022-10-03T18:49:35.185Z,19.08
2022-10-03T18:52:00.538Z,18.95
2022-10-03T18:54:47.544Z,18.98
2022-10-03T18:57:26.488Z,19.17
2022-10-03T19:00:03.123Z,19.04
2022-10-03T19:02:40.401Z,19.12
2022-10-03T19:05:17.727Z,19.14
2022-10-03T19:07:55.127Z,19.24
2022-10-03T19:10:43.840Z,19.11
2022-10-03T19:13:29.668Z,18.92
2022-10-03T19:16:33.840Z,19.02
2022-10-03T19:19:11.453Z,19.07
2022-10-03T19:21:43.280Z,19.06
2022-10-03T19:24:30.582Z,19.06
2022-10-03T19:27:17.634Z,19.03
2022-10-03T19:29:52.267Z,18.99
2022-10-03T19:32:33.521Z,19.08
2022-10-03T19:35:06.453Z,18.92
2022-10-03T19:37:45.797Z,19.00
2022-10-03T19:40:30.966Z,19.04
2022-10-03T19:43:33.181Z,19.06
2022-10-03T19:46:35.001Z,19.07
2022-10-03T19:49:33.644Z,18.95
2022-10-03T19:52:28.016Z,19.04
2022-10-03T19:55:03.976Z,18.82
2022-10-03T19:57:43.121Z,18.72
2022-10-03T20:00:40.304Z,18.84
2022-10-03T20:03:21.621Z,18.93
2022-10-03T20:06:19.643Z,18.80
2022-10-03T20:08:54.823Z,18.91
2022-10-03T20:11:40.694Z,18.93
2022-10-03T20:14:19.777Z,18.81
2022-10-03T20:16:50.737Z,18.99
2022-10-03T20:19:27.273Z,18.92
2022-10-03T20:21:59.182Z,19.00
2022-10-03T20:24:33.965Z,18.99
2022-10-03T20:27:30.882Z,19.09
2022-10-03T20:30:26.745Z,19.09
2022-10-03T20:32:59.347Z,19.05
2022-10-03T20:35:37.833Z,18.96
2022-10-03T20:38:17.436Z,19.09
2022-10-03T20:40:55.550Z,19.11
2022-10-03T20:43:41.827Z,19.09
2022-10-03T20:46:26.004Z,19.14
2022-10-03T20:49:22.289Z,19.17
2022-10-03T20:52:02.469Z,19.21
2022-10-03T20:54:37.927Z,19.27
2022-10-03T20:57:18.178Z,19.15
2022-10-03T20:59:51.018Z,19.18
2022-10-03T21:02:30.739Z,19.20
2022-10-03T21:05:06.275Z,19.12
2022-10-03T21:07:43.411Z,19.13
2022-10-03T21:10:25.338Z,19.09
2022-10-03T21:12:58.975Z,19.01
2022-10-03T21:15:40.922Z,19.18
2022-10-03T21:18:23.015Z,19.25
2022-10-03T21:21:07.424Z,19.27
2022-10-03T21:23:44.781Z,19.24
2022-10-03T21:26:14.454Z,19.31
2022-10-03T21:28:43.646Z,19.30
2022-10-03T21:31:38.504Z,19.21
2022-10-03T21:34:19.071Z,19.27
2022-10-03T21:36:58.064Z,19.22
2022-10-03T21:39:41.829Z,19.34
2022-10-03T21:42:22.043Z,19.19
2022-10-03T21:45:10.830Z,19.29
2022-10-03T21:47:49.986Z,19.20
2022-10-03T21:50:25.897Z,19.19
2022-10-03T21:53:18.637Z,19.17
2022-10-03T21:56:21.795Z,19.26
2022-10-03T21:59:15.370Z,19.25
2022-10-03T22:01:50.023Z,19.16
2022-10-03T22:04:27.761Z,19.21
2022-10-03T22:07:06.405Z,19.19
2022-10-03T22:09:35.787Z,19.24
2022-10-03T22:12:08.288Z,19.16
2022-10-03T22:14:46.489Z,19.16
2022-10-03T22:17:25.312Z,19.06
2022-10-03T22:20:12.387Z,19.05
2022-10-03T22:22:56.217Z,19.02
2022-10-03T22:25:56.913Z,19.06
2022-10-03T22:28:43.223Z,18.98
2022-10-03T22:31:26.171Z,18.95
2022-10-03T22:34:18.101Z,18.87
2022-10-03T22:36:47.486Z,18.90
2022-10-03T22:39:19.606Z,18.97
2022-10-03T22:41:54.484Z,19.02
2022-10-03T22:44:29.249Z,18.87
2022-10-03T22:47:12.977Z,18.70
2022-10-03T22:49:45.889Z,18.88
2022-10-03T22:52:23.867Z,18.85
2022-10-03T22:54:55.170Z,18.94
2022-10-03T22:57:26.486Z,18.97
2022-10-03T23:00:02.254Z,19.07
2022-10-03T23:02:34.907Z,18.98
2022-10-03T23:05:06.492Z,18.91
2022-10-03T23:08:08.279Z,19.14
2022-10-03T23:10:49.012Z,19.04
2022-10-03T23:13:37.629Z,19.03
2022-10-03T23:16:29.918Z,19.01
2022-10-03T23:19:34.994Z,19.08
2022-10-03T23:22:05.973Z,18.90
2022-10-03T23:24:43.827Z,19.00
2022-10-03T23:27:49.522Z,19.01
2022-10-03T23:30:54.245Z,19.00
2022-10-03T23:33:53.836Z,18.92
2022-10-03T23:36:25.515Z,18.98
2022-10-03T23:39:02.479Z,18.99
2022-10-03T23:41:56.440Z,19.04
2022-10-03T23:44:48.877Z,18.98
2022-10-03T23:47:26.688Z,18.98
2022-10-03T23:49:58.457Z,19.14
2022-10-03T23:52:32.015Z,19.18
2022-10-03T23:55:08.378Z,19.17
2022-10-03T23:57:42.797Z,19.13
